sensor_id;sensor_type;location;lat;lon;timestamp;pressure;altitude;pressure_sealevel;temperature;humidity
8334;BME280;4204;43.004;23.052;2023-09-07T00:02:09;94297.03;;;21.81;100.00
8334;BME280;4204;43.004;23.052;2023-09-07T00:04:37;94295.47;;;21.77;100.00
8334;BME280;4204;43.004;23.052;2023-09-07T00:07:04;94281.94;;;21.77;100.00
8334;BME280;4204;43.004;23.052;2023-09-07T00:09:32;94286.66;;;21.83;100.00
8334;BME280;4204;43.004;23.052;2023-09-07T00:12:00;94276.22;;;21.85;100.00
8334;BME280;4204;43.004;23.052;2023-09-07T00:14:28;94291.97;;;21.76;100.00
8334;BME280;4204;43.004;23.052;2023-09-07T00:16:56;94288.09;;;21.77;100.00
8334;BME280;4204;43.004;23.052;2023-09-07T00:19:25;94283.22;;;21.86;100.00
8334;BME280;4204;43.004;23.052;2023-09-07T00:21:53;94279.72;;;21.86;100.00
8334;BME280;4204;43.004;23.052;2023-09-07T00:24:21;94280.75;;;21.74;100.00
8334;BME280;4204;43.004;23.052;2023-09-07T00:26:49;94281.63;;;21.85;100.00
8334;BME280;4204;43.004;23.052;2023-09-07T00:29:18;94282.28;;;21.75;100.00
8334;BME280;4204;43.004;23.052;2023-09-07T00:31:46;94285.09;;;21.82;100.00
8334;BME280;4204;43.004;23.052;2023-09-07T00:34:13;94280.59;;;21.93;100.00
8334;BME280;4204;43.004;23.052;2023-09-07T00:36:42;94272.06;;;21.91;100.00
8334;BME280;4204;43.004;23.052;2023-09-07T00:39:10;94278.28;;;21.95;100.00
8334;BME280;4204;43.004;23.052;2023-09-07T00:41:38;94275.16;;;21.93;100.00
8334;BME280;4204;43.004;23.052;2023-09-07T00:44:05;94276.72;;;21.98;100.00
8334;BME280;4204;43.004;23.052;2023-09-07T00:46:33;94267.88;;;22.01;100.00
8334;BME280;4204;43.004;23.052;2023-09-07T00:49:02;94278.28;;;21.95;100.00
8334;BME280;4204;43.004;23.052;2023-09-07T00:51:31;94282.81;;;21.84;100.00
8334;BME280;4204;43.004;23.052;2023-09-07T00:54:01;94278.34;;;21.69;100.00
8334;BME280;4204;43.004;23.052;2023-09-07T00:56:28;94281.94;;;21.77;100.00
8334;BME280;4204;43.004;23.052;2023-09-07T00:58:56;94279.56;;;21.75;100.00
8334;BME280;4204;43.004;23.052;2023-09-07T01:01:27;94276.88;;;21.75;100.00
8334;BME280;4204;43.004;23.052;2023-09-07T01:03:54;94278.84;;;21.78;100.00
8334;BME280;4204;43.004;23.052;2023-09-07T01:06:26;94275.06;;;21.83;100.00
8334;BME280;4204;43.004;23.052;2023-09-07T01:09:03;94280.38;;;21.79;100.00
8334;BME280;4204;43.004;23.052;2023-09-07T01:11:36;94266.09;;;21.79;100.00
8334;BME280;4204;43.004;23.052;2023-09-07T01:14:04;94274.56;;;21.77;100.00
8334;BME280;4204;43.004;23.052;2023-09-07T01:16:32;94278.03;;;21.74;100.00
8334;BME280;4204;43.004;23.052;2023-09-07T01:19:02;94270.16;;;21.62;100.00
8334;BME280;4204;43.004;23.052;2023-09-07T01:21:34;94272.06;;;21.58;100.00
8334;BME280;4204;43.004;23.052;2023-09-07T01:24:04;94267.75;;;21.53;100.00
8334;BME280;4204;43.004;23.052;2023-09-07T01:26:33;94269.53;;;21.39;100.00
8334;BME280;4204;43.004;23.052;2023-09-07T01:29:01;94264.41;;;21.30;100.00
8334;BME280;4204;43.004;23.052;2023-09-07T01:31:29;94278.38;;;21.36;100.00
8334;BME280;4204;43.004;23.052;2023-09-07T01:33:56;94268.19;;;21.26;100.00
8334;BME280;4204;43.004;23.052;2023-09-07T01:36:24;94275.91;;;21.24;100.00
8334;BME280;4204;43.004;23.052;2023-09-07T01:38:53;94275.91;;;21.24;100.00
8334;BME280;4204;43.004;23.052;2023-09-07T01:41:21;94275.13;;;21.23;100.00
8334;BME280;4204;43.004;23.052;2023-09-07T01:43:49;94271.56;;;21.16;100.00
8334;BME280;4204;43.004;23.052;2023-09-07T01:46:17;94280.50;;;21.20;100.00
8334;BME280;4204;43.004;23.052;2023-09-07T01:48:44;94275.88;;;21.20;100.00
8334;BME280;4204;43.004;23.052;2023-09-07T01:51:12;94272.06;;;21.25;100.00
8334;BME280;4204;43.004;23.052;2023-09-07T01:53:41;94273.53;;;21.19;100.00
8334;BME280;4204;43.004;23.052;2023-09-07T01:56:10;94270.50;;;21.24;100.00
8334;BME280;4204;43.004;23.052;2023-09-07T01:58:38;94273.03;;;21.10;100.00
8334;BME280;4204;43.004;23.052;2023-09-07T02:01:20;94267.94;;;21.05;100.00
8334;BME280;4204;43.004;23.052;2023-09-07T02:03:47;94277.63;;;21.06;100.00
8334;BME280;4204;43.004;23.052;2023-09-07T02:06:15;94275.38;;;21.11;100.00
8334;BME280;4204;43.004;23.052;2023-09-07T02:08:43;94279.22;;;21.10;100.00
8334;BME280;4204;43.004;23.052;2023-09-07T02:11:12;94278.03;;;21.08;100.00
8334;BME280;4204;43.004;23.052;2023-09-07T02:13:41;94271.13;;;21.10;100.00
8334;BME280;4204;43.004;23.052;2023-09-07T02:16:09;94274.53;;;21.07;100.00
8334;BME280;4204;43.004;23.052;2023-09-07T02:18:37;94268.63;;;20.98;100.00
8334;BME280;4204;43.004;23.052;2023-09-07T02:21:06;94273.78;;;20.80;100.00
8334;BME280;4204;43.004;23.052;2023-09-07T02:23:34;94273.88;;;20.87;100.00
8334;BME280;4204;43.004;23.052;2023-09-07T02:26:03;94278.28;;;20.99;100.00
8334;BME280;4204;43.004;23.052;2023-09-07T02:28:32;94265.44;;;20.92;100.00
8334;BME280;4204;43.004;23.052;2023-09-07T02:31:02;94270.22;;;21.03;100.00
8334;BME280;4204;43.004;23.052;2023-09-07T02:33:31;94279.06;;;21.00;100.00
8334;BME280;4204;43.004;23.052;2023-09-07T02:35:58;94274.78;;;20.98;100.00
8334;BME280;4204;43.004;23.052;2023-09-07T02:38:27;94278.75;;;21.05;100.00
8334;BME280;4204;43.004;23.052;2023-09-07T02:40:55;94277.13;;;21.00;100.00
8334;BME280;4204;43.004;23.052;2023-09-07T02:43:24;94280.19;;;20.98;100.00
8334;BME280;4204;43.004;23.052;2023-09-07T02:45:53;94277.63;;;21.06;100.00
8334;BME280;4204;43.004;23.052;2023-09-07T02:48:22;94274.56;;;21.11;100.00
8334;BME280;4204;43.004;23.052;2023-09-07T02:51:03;94280.81;;;21.15;100.00
8334;BME280;4204;43.004;23.052;2023-09-07T02:53:31;94280.28;;;21.02;100.00
8334;BME280;4204;43.004;23.052;2023-09-07T02:55:59;94284.22;;;20.82;100.00
8334;BME280;4204;43.004;23.052;2023-09-07T02:58:29;94282.41;;;20.89;100.00
8334;BME280;4204;43.004;23.052;2023-09-07T03:00:58;94287.66;;;21.05;100.00
8334;BME280;4204;43.004;23.052;2023-09-07T03:03:26;94284.06;;;20.98;100.00
8334;BME280;4204;43.004;23.052;2023-09-07T03:05:54;94284.69;;;20.87;100.00
8334;BME280;4204;43.004;23.052;2023-09-07T03:08:23;94282.59;;;20.77;100.00
8334;BME280;4204;43.004;23.052;2023-09-07T03:10:51;94283.38;;;20.78;100.00
8334;BME280;4204;43.004;23.052;2023-09-07T03:13:19;94284.63;;;20.84;100.00
8334;BME280;4204;43.004;23.052;2023-09-07T03:15:47;94281.78;;;20.73;100.00
8334;BME280;4204;43.004;23.052;2023-09-07T03:18:16;94278.38;;;20.80;100.00
8334;BME280;4204;43.004;23.052;2023-09-07T03:20:43;94278.19;;;20.66;100.00
8334;BME280;4204;43.004;23.052;2023-09-07T03:23:11;94281.00;;;20.47;100.00
8334;BME280;4204;43.004;23.052;2023-09-07T03:25:40;94268.53;;;20.39;100.00
8334;BME280;4204;43.004;23.052;2023-09-07T03:28:11;94276.41;;;20.25;100.00
8334;BME280;4204;43.004;23.052;2023-09-07T03:30:39;94277.41;;;20.16;100.00
8334;BME280;4204;43.004;23.052;2023-09-07T03:33:07;94280.31;;;20.27;100.00
8334;BME280;4204;43.004;23.052;2023-09-07T03:35:36;94274.81;;;20.46;100.00
8334;BME280;4204;43.004;23.052;2023-09-07T03:38:05;94286.50;;;20.54;100.00
8334;BME280;4204;43.004;23.052;2023-09-07T03:40:32;94283.16;;;20.60;100.00
8334;BME280;4204;43.004;23.052;2023-09-07T03:43:00;94279.28;;;20.61;100.00
8334;BME280;4204;43.004;23.052;2023-09-07T03:45:28;94282.56;;;20.48;100.00
8334;BME280;4204;43.004;23.052;2023-09-07T03:47:56;94284.22;;;20.30;100.00
8334;BME280;4204;43.004;23.052;2023-09-07T03:50:25;94286.00;;;20.22;100.00
8334;BME280;4204;43.004;23.052;2023-09-07T03:52:54;94298.31;;;20.20;100.00
8334;BME280;4204;43.004;23.052;2023-09-07T03:55:22;94291.28;;;20.15;100.00
8334;BME280;4204;43.004;23.052;2023-09-07T03:57:51;94289.34;;;20.15;100.00
8334;BME280;4204;43.004;23.052;2023-09-07T04:00:18;94296.72;;;20.18;100.00
8334;BME280;4204;43.004;23.052;2023-09-07T04:02:48;94298.97;;;20.13;100.00
8334;BME280;4204;43.004;23.052;2023-09-07T04:05:15;94291.94;;;20.08;100.00
8334;BME280;4204;43.004;23.052;2023-09-07T04:07:43;94286.13;;;20.06;100.00
8334;BME280;4204;43.004;23.052;2023-09-07T04:10:13;94297.72;;;20.07;100.00
8334;BME280;4204;43.004;23.052;2023-09-07T04:12:41;94297.16;;;19.98;100.00
8334;BME280;4204;43.004;23.052;2023-09-07T04:15:10;94303.56;;;20.12;100.00
8334;BME280;4204;43.004;23.052;2023-09-07T04:17:38;94308.50;;;20.07;100.00
8334;BME280;4204;43.004;23.052;2023-09-07T04:20:08;94308.63;;;20.14;100.00
8334;BME280;4204;43.004;23.052;2023-09-07T04:22:37;94304.84;;;20.18;100.00
8334;BME280;4204;43.004;23.052;2023-09-07T04:25:06;94305.50;;;20.12;100.00
8334;BME280;4204;43.004;23.052;2023-09-07T04:27:35;94306.69;;;20.14;100.00
8334;BME280;4204;43.004;23.052;2023-09-07T04:30:04;94311.56;;;20.28;100.00
8334;BME280;4204;43.004;23.052;2023-09-07T04:32:32;94317.56;;;20.18;100.00
8334;BME280;4204;43.004;23.052;2023-09-07T04:35:00;94316.56;;;20.26;100.00
8334;BME280;4204;43.004;23.052;2023-09-07T04:37:28;94320.03;;;20.27;100.00
8334;BME280;4204;43.004;23.052;2023-09-07T04:39:56;94320.00;;;20.23;100.00
8334;BME280;4204;43.004;23.052;2023-09-07T04:42:24;94327.31;;;20.23;100.00
8334;BME280;4204;43.004;23.052;2023-09-07T04:44:54;94326.41;;;20.38;100.00
8334;BME280;4204;43.004;23.052;2023-09-07T04:47:21;94335.22;;;20.35;100.00
8334;BME280;4204;43.004;23.052;2023-09-07T04:49:49;94324.88;;;20.40;100.00
8334;BME280;4204;43.004;23.052;2023-09-07T04:52:19;94326.09;;;20.43;100.00
8334;BME280;4204;43.004;23.052;2023-09-07T04:54:47;94324.47;;;20.38;100.00
8334;BME280;4204;43.004;23.052;2023-09-07T04:57:16;94326.47;;;20.41;100.00
8334;BME280;4204;43.004;23.052;2023-09-07T04:59:44;94329.16;;;20.41;100.00
8334;BME280;4204;43.004;23.052;2023-09-07T05:02:13;94333.41;;;20.42;100.00
8334;BME280;4204;43.004;23.052;2023-09-07T05:04:41;94335.22;;;20.35;100.00
8334;BME280;4204;43.004;23.052;2023-09-07T05:07:10;94333.28;;;20.32;100.00
8334;BME280;4204;43.004;23.052;2023-09-07T05:09:38;94331.75;;;20.34;100.00
8334;BME280;4204;43.004;23.052;2023-09-07T05:12:06;94337.16;;;20.34;100.00
8334;BME280;4204;43.004;23.052;2023-09-07T05:14:34;94332.47;;;20.31;100.00
8334;BME280;4204;43.004;23.052;2023-09-07T05:17:02;94337.56;;;20.36;100.00
8334;BME280;4204;43.004;23.052;2023-09-07T05:19:32;94334.16;;;20.39;100.00
8334;BME280;4204;43.004;23.052;2023-09-07T05:22:01;94337.84;;;20.28;100.00
8334;BME280;4204;43.004;23.052;2023-09-07T05:24:28;94344.31;;;20.23;100.00
8334;BME280;4204;43.004;23.052;2023-09-07T05:26:56;94341.94;;;20.22;100.00
8334;BME280;4204;43.004;23.052;2023-09-07T05:29:24;94344.16;;;20.16;100.00
8334;BME280;4204;43.004;23.052;2023-09-07T05:31:52;94343.94;;;20.25;100.00
8334;BME280;4204;43.004;23.052;2023-09-07T05:34:20;94338.97;;;20.27;100.00
8334;BME280;4204;43.004;23.052;2023-09-07T05:36:49;94346.81;;;20.35;100.00
8334;BME280;4204;43.004;23.052;2023-09-07T05:39:17;94349.28;;;20.21;100.00
8334;BME280;4204;43.004;23.052;2023-09-07T05:41:45;94340.66;;;20.15;100.00
8334;BME280;4204;43.004;23.052;2023-09-07T05:44:13;94347.44;;;20.06;100.00
8334;BME280;4204;43.004;23.052;2023-09-07T05:46:40;94351.41;;;20.12;100.00
8334;BME280;4204;43.004;23.052;2023-09-07T05:49:09;94345.34;;;20.18;100.00
8334;BME280;4204;43.004;23.052;2023-09-07T05:51:37;94341.59;;;20.23;100.00
8334;BME280;4204;43.004;23.052;2023-09-07T05:54:06;94345.81;;;20.21;100.00
8334;BME280;4204;43.004;23.052;2023-09-07T05:56:35;94348.22;;;20.26;100.00
8334;BME280;4204;43.004;23.052;2023-09-07T05:59:03;94342.72;;;20.22;100.00
8334;BME280;4204;43.004;23.052;2023-09-07T06:01:31;94336.47;;;20.18;100.00
8334;BME280;4204;43.004;23.052;2023-09-07T06:03:59;94341.59;;;20.23;100.00
8334;BME280;4204;43.004;23.052;2023-09-07T06:06:27;94338.50;;;20.21;100.00
8334;BME280;4204;43.004;23.052;2023-09-07T06:08:56;94342.44;;;20.27;100.00
8334;BME280;4204;43.004;23.052;2023-09-07T06:11:26;94344.13;;;20.35;100.00
8334;BME280;4204;43.004;23.052;2023-09-07T06:13:54;94349.97;;;20.18;100.00
8334;BME280;4204;43.004;23.052;2023-09-07T06:16:22;94348.50;;;20.21;100.00
8334;BME280;4204;43.004;23.052;2023-09-07T06:18:49;94333.09;;;20.21;100.00
8334;BME280;4204;43.004;23.052;2023-09-07T06:21:17;94344.84;;;20.32;100.00
8334;BME280;4204;43.004;23.052;2023-09-07T06:23:47;94344.78;;;20.29;100.00
8334;BME280;4204;43.004;23.052;2023-09-07T06:26:14;94342.44;;;20.27;100.00
8334;BME280;4204;43.004;23.052;2023-09-07T06:28:46;94343.09;;;20.43;100.00
8334;BME280;4204;43.004;23.052;2023-09-07T06:31:13;94336.97;;;20.46;100.00
8334;BME280;4204;43.004;23.052;2023-09-07T06:33:41;94340.94;;;20.52;100.00
8334;BME280;4204;43.004;23.052;2023-09-07T06:36:09;94338.81;;;20.65;100.00
8334;BME280;4204;43.004;23.052;2023-09-07T06:38:37;94335.97;;;20.80;100.00
8334;BME280;4204;43.004;23.052;2023-09-07T06:41:05;94341.06;;;20.85;100.00
8334;BME280;4204;43.004;23.052;2023-09-07T06:43:34;94339.13;;;20.86;100.00
8334;BME280;4204;43.004;23.052;2023-09-07T06:46:08;94339.91;;;21.13;100.00
8334;BME280;4204;43.004;23.052;2023-09-07T06:48:36;94342.34;;;21.21;100.00
8334;BME280;4204;43.004;23.052;2023-09-07T06:51:06;94341.66;;;21.28;100.00
8334;BME280;4204;43.004;23.052;2023-09-07T06:53:35;94348.72;;;21.36;100.00
8334;BME280;4204;43.004;23.052;2023-09-07T06:56:03;94344.25;;;21.47;100.00
8334;BME280;4204;43.004;23.052;2023-09-07T06:58:33;94342.91;;;21.63;100.00
8334;BME280;4204;43.004;23.052;2023-09-07T07:01:01;94341.09;;;21.74;100.00
8334;BME280;4204;43.004;23.052;2023-09-07T07:03:32;94342.50;;;21.95;100.00
8334;BME280;4204;43.004;23.052;2023-09-07T07:06:01;94338.06;;;22.16;100.00
8334;BME280;4204;43.004;23.052;2023-09-07T07:08:29;94343.28;;;22.35;100.00
8334;BME280;4204;43.004;23.052;2023-09-07T07:10:57;94347.59;;;22.43;100.00
8334;BME280;4204;43.004;23.052;2023-09-07T07:13:25;94346.50;;;22.51;100.00
8334;BME280;4204;43.004;23.052;2023-09-07T07:15:54;94342.72;;;22.60;100.00
8334;BME280;4204;43.004;23.052;2023-09-07T07:18:22;94351.53;;;22.49;100.00
8334;BME280;4204;43.004;23.052;2023-09-07T07:20:52;94354.75;;;22.59;100.00
8334;BME280;4204;43.004;23.052;2023-09-07T07:23:19;94351.66;;;22.60;100.00
8334;BME280;4204;43.004;23.052;2023-09-07T07:25:47;94360.53;;;22.57;100.00
8334;BME280;4204;43.004;23.052;2023-09-07T07:28:16;94358.56;;;22.54;100.00
8334;BME280;4204;43.004;23.052;2023-09-07T07:30:43;94358.53;;;22.50;100.00
8334;BME280;4204;43.004;23.052;2023-09-07T07:33:11;94360.16;;;22.59;100.00
8334;BME280;4204;43.004;23.052;2023-09-07T07:35:39;94364.44;;;22.60;100.00
8334;BME280;4204;43.004;23.052;2023-09-07T07:38:09;94369.94;;;22.70;100.00
8334;BME280;4204;43.004;23.052;2023-09-07T07:40:38;94368.41;;;22.73;100.00
8334;BME280;4204;43.004;23.052;2023-09-07T07:43:06;94373.03;;;22.69;100.00
8334;BME280;4204;43.004;23.052;2023-09-07T07:45:34;94371.22;;;22.83;100.00
8334;BME280;4204;43.004;23.052;2023-09-07T07:48:05;94373.03;;;22.69;100.00
8334;BME280;4204;43.004;23.052;2023-09-07T07:50:38;94375.00;;;22.72;100.00
8334;BME280;4204;43.004;23.052;2023-09-07T07:53:09;94373.47;;;22.74;100.00
8334;BME280;4204;43.004;23.052;2023-09-07T07:55:38;94364.66;;;22.88;100.00
8334;BME280;4204;43.004;23.052;2023-09-07T07:58:10;94363.53;;;22.92;100.00
8334;BME280;4204;43.004;23.052;2023-09-07T08:00:39;94359.69;;;22.97;100.00
8334;BME280;4204;43.004;23.052;2023-09-07T08:03:10;94368.19;;;22.95;100.00
8334;BME280;4204;43.004;23.052;2023-09-07T08:05:38;94372.50;;;23.00;100.00
8334;BME280;4204;43.004;23.052;2023-09-07T08:08:11;94364.44;;;23.10;100.00
8334;BME280;4204;43.004;23.052;2023-09-07T08:10:40;94375.72;;;23.16;100.00
8334;BME280;4204;43.004;23.052;2023-09-07T08:13:10;94365.50;;;22.99;100.00
8334;BME280;4204;43.004;23.052;2023-09-07T08:15:38;94367.63;;;23.23;100.00
8334;BME280;4204;43.004;23.052;2023-09-07T08:18:06;94366.19;;;23.43;100.00
8334;BME280;4204;43.004;23.052;2023-09-07T08:20:35;94367.81;;;23.55;100.00
8334;BME280;4204;43.004;23.052;2023-09-07T08:23:05;94366.31;;;23.64;100.00
8334;BME280;4204;43.004;23.052;2023-09-07T08:25:36;94378.66;;;23.55;100.00
8334;BME280;4204;43.004;23.052;2023-09-07T08:28:05;94366.66;;;23.59;100.00
8334;BME280;4204;43.004;23.052;2023-09-07T08:30:33;94366.31;;;23.68;100.00
8334;BME280;4204;43.004;23.052;2023-09-07T08:33:01;94364.38;;;23.68;100.00
8334;BME280;4204;43.004;23.052;2023-09-07T08:35:31;94359.00;;;23.82;100.00
8334;BME280;4204;43.004;23.052;2023-09-07T08:38:01;94378.84;;;23.97;100.00
8334;BME280;4204;43.004;23.052;2023-09-07T08:40:32;94360.19;;;23.92;100.00
8334;BME280;4204;43.004;23.052;2023-09-07T08:43:03;94378.91;;;24.04;100.00
8334;BME280;4204;43.004;23.052;2023-09-07T08:45:41;94377.66;;;23.94;100.00
8334;BME280;4204;43.004;23.052;2023-09-07T08:48:10;94386.56;;;23.88;100.00
8334;BME280;4204;43.004;23.052;2023-09-07T08:50:40;94377.31;;;24.03;100.00
8334;BME280;4204;43.004;23.052;2023-09-07T08:53:09;94372.72;;;24.21;100.00
8334;BME280;4204;43.004;23.052;2023-09-07T08:55:36;94371.19;;;24.17;100.00
8334;BME280;4204;43.004;23.052;2023-09-07T08:58:06;94367.69;;;24.20;100.00
8334;BME280;4204;43.004;23.052;2023-09-07T09:00:33;94371.94;;;24.17;100.00
8334;BME280;4204;43.004;23.052;2023-09-07T09:03:02;94362.63;;;24.22;100.00
8334;BME280;4204;43.004;23.052;2023-09-07T09:05:30;94378.94;;;24.25;100.00
8334;BME280;4204;43.004;23.052;2023-09-07T09:08:02;94375.84;;;24.13;100.00
8334;BME280;4204;43.004;23.052;2023-09-07T09:10:31;94363.25;;;23.76;100.00
8334;BME280;4204;43.004;23.052;2023-09-07T09:12:59;94366.31;;;23.71;100.00
8334;BME280;4204;43.004;23.052;2023-09-07T09:15:29;94365.53;;;23.67;100.00
8334;BME280;4204;43.004;23.052;2023-09-07T09:17:57;94367.03;;;23.54;100.00
8334;BME280;4204;43.004;23.052;2023-09-07T09:20:25;94358.16;;;23.61;100.00
8334;BME280;4204;43.004;23.052;2023-09-07T09:22:54;94362.50;;;23.83;100.00
8334;BME280;4204;43.004;23.052;2023-09-07T09:25:22;94360.69;;;24.12;100.00
8334;BME280;4204;43.004;23.052;2023-09-07T09:27:50;94361.13;;;24.31;100.00
8334;BME280;4204;43.004;23.052;2023-09-07T09:30:18;94370.00;;;24.21;100.00
8334;BME280;4204;43.004;23.052;2023-09-07T09:32:48;94355.63;;;24.14;100.00
8334;BME280;4204;43.004;23.052;2023-09-07T09:35:16;94356.38;;;24.03;100.00
8334;BME280;4204;43.004;23.052;2023-09-07T09:37:45;94357.13;;;24.00;100.00
8334;BME280;4204;43.004;23.052;2023-09-07T09:40:13;94350.84;;;23.86;100.00
8334;BME280;4204;43.004;23.052;2023-09-07T09:42:42;94349.31;;;23.92;100.00
8334;BME280;4204;43.004;23.052;2023-09-07T09:45:11;94352.81;;;23.92;100.00
8334;BME280;4204;43.004;23.052;2023-09-07T09:47:40;94353.97;;;23.84;100.00
8334;BME280;4204;43.004;23.052;2023-09-07T09:50:11;94359.81;;;23.97;100.00
8334;BME280;4204;43.004;23.052;2023-09-07T09:52:39;94350.16;;;24.06;100.00
8334;BME280;4204;43.004;23.052;2023-09-07T09:55:07;94348.69;;;24.27;100.00
8334;BME280;4204;43.004;23.052;2023-09-07T09:57:39;94356.81;;;24.20;100.00
8334;BME280;4204;43.004;23.052;2023-09-07T10:00:08;94356.44;;;24.25;100.00
8334;BME280;4204;43.004;23.052;2023-09-07T10:02:55;94357.25;;;24.39;100.00
8334;BME280;4204;43.004;23.052;2023-09-07T10:05:27;94351.03;;;24.39;100.00
8334;BME280;4204;43.004;23.052;2023-09-07T10:08:00;94346.38;;;24.43;100.00
8334;BME280;4204;43.004;23.052;2023-09-07T10:10:33;94339.38;;;24.59;100.00
8334;BME280;4204;43.004;23.052;2023-09-07T10:13:03;94328.91;;;24.68;100.00
8334;BME280;4204;43.004;23.052;2023-09-07T10:15:31;94328.53;;;24.73;100.00
8334;BME280;4204;43.004;23.052;2023-09-07T10:18:06;94320.34;;;24.77;100.00
8334;BME280;4204;43.004;23.052;2023-09-07T10:20:54;94327.75;;;24.76;100.00
8334;BME280;4204;43.004;23.052;2023-09-07T10:23:22;94326.16;;;24.65;100.00
8334;BME280;4204;43.004;23.052;2023-09-07T10:25:51;94332.38;;;24.41;100.00
8334;BME280;4204;43.004;23.052;2023-09-07T10:28:23;94321.88;;;24.36;100.00
8334;BME280;4204;43.004;23.052;2023-09-07T10:31:01;94335.09;;;24.41;100.00
8334;BME280;4204;43.004;23.052;2023-09-07T10:33:31;94326.16;;;24.51;100.00
8334;BME280;4204;43.004;23.052;2023-09-07T10:36:01;94331.97;;;24.46;100.00
8334;BME280;4204;43.004;23.052;2023-09-07T10:38:31;94328.09;;;24.47;100.00
8334;BME280;4204;43.004;23.052;2023-09-07T10:41:00;94329.66;;;24.41;100.00
8334;BME280;4204;43.004;23.052;2023-09-07T10:43:29;94326.16;;;24.44;100.00
8334;BME280;4204;43.004;23.052;2023-09-07T10:45:58;94319.94;;;24.61;100.00
8334;BME280;4204;43.004;23.052;2023-09-07T10:48:29;94325.00;;;24.94;100.00
8334;BME280;4204;43.004;23.052;2023-09-07T10:50:57;94313.72;;;25.03;100.00
8334;BME280;4204;43.004;23.052;2023-09-07T10:53:28;94316.03;;;25.04;100.00
8334;BME280;4204;43.004;23.052;2023-09-07T10:55:58;94324.25;;;24.90;100.00
8334;BME280;4204;43.004;23.052;2023-09-07T10:58:27;94318.78;;;24.94;100.00
8334;BME280;4204;43.004;23.052;2023-09-07T11:00:55;94323.06;;;24.98;100.00
8334;BME280;4204;43.004;23.052;2023-09-07T11:03:24;94331.63;;;24.82;100.00
8334;BME280;4204;43.004;23.052;2023-09-07T11:05:54;94315.31;;;24.93;100.00
8334;BME280;4204;43.004;23.052;2023-09-07T11:08:23;94329.28;;;24.92;100.00
8334;BME280;4204;43.004;23.052;2023-09-07T11:10:52;94326.97;;;24.86;100.00
8334;BME280;4204;43.004;23.052;2023-09-07T11:13:21;94339.41;;;24.80;100.00
8334;BME280;4204;43.004;23.052;2023-09-07T11:15:53;94320.34;;;24.84;100.00
8334;BME280;4204;43.004;23.052;2023-09-07T11:18:22;94328.13;;;24.89;100.00
8334;BME280;4204;43.004;23.052;2023-09-07T11:20:51;94319.94;;;25.07;100.00
8334;BME280;4204;43.004;23.052;2023-09-07T11:23:21;94309.03;;;25.10;100.00
8334;BME280;4204;43.004;23.052;2023-09-07T11:25:49;94317.19;;;25.10;100.00
8334;BME280;4204;43.004;23.052;2023-09-07T11:28:19;94311.38;;;25.12;100.00
8334;BME280;4204;43.004;23.052;2023-09-07T11:30:49;94311.00;;;25.03;100.00
8334;BME280;4204;43.004;23.052;2023-09-07T11:33:17;94308.22;;;25.20;100.00
8334;BME280;4204;43.004;23.052;2023-09-07T11:35:45;94309.78;;;25.25;100.00
8334;BME280;4204;43.004;23.052;2023-09-07T11:38:14;94310.56;;;25.25;100.00
8334;BME280;4204;43.004;23.052;2023-09-07T11:40:42;94296.53;;;25.27;100.00
8334;BME280;4204;43.004;23.052;2023-09-07T11:43:10;94319.09;;;25.34;100.00
8334;BME280;4204;43.004;23.052;2023-09-07T11:45:40;94310.16;;;25.44;100.00
8334;BME280;4204;43.004;23.052;2023-09-07T11:48:08;94301.50;;;25.60;100.00
8334;BME280;4204;43.004;23.052;2023-09-07T11:50:37;94301.91;;;25.58;100.00
8334;BME280;4204;43.004;23.052;2023-09-07T11:53:05;94292.13;;;25.72;100.00
8334;BME280;4204;43.004;23.052;2023-09-07T11:55:33;94292.50;;;25.77;100.00
8334;BME280;4204;43.004;23.052;2023-09-07T11:58:02;94297.22;;;25.62;100.00
8334;BME280;4204;43.004;23.052;2023-09-07T12:00:30;94299.44;;;25.85;100.00
8334;BME280;4204;43.004;23.052;2023-09-07T12:03:00;94302.53;;;25.91;100.00
8334;BME280;4204;43.004;23.052;2023-09-07T12:05:27;94288.56;;;25.85;100.00
8334;BME280;4204;43.004;23.052;2023-09-07T12:07:55;94292.00;;;25.96;100.00
8334;BME280;4204;43.004;23.052;2023-09-07T12:10:23;94283.38;;;26.08;100.00
8334;BME280;4204;43.004;23.052;2023-09-07T12:12:51;94296.25;;;26.04;100.00
8334;BME280;4204;43.004;23.052;2023-09-07T12:15:19;94298.59;;;26.02;100.00
8334;BME280;4204;43.004;23.052;2023-09-07T12:17:46;94288.13;;;25.94;100.00
8334;BME280;4204;43.004;23.052;2023-09-07T12:20:17;94277.56;;;26.03;100.00
8334;BME280;4204;43.004;23.052;2023-09-07T12:22:45;94279.47;;;26.06;100.00
8334;BME280;4204;43.004;23.052;2023-09-07T12:25:13;94280.44;;;25.78;100.00
8334;BME280;4204;43.004;23.052;2023-09-07T12:27:42;94271.50;;;25.71;100.00
8334;BME280;4204;43.004;23.052;2023-09-07T12:30:10;94287.44;;;25.72;100.00
8334;BME280;4204;43.004;23.052;2023-09-07T12:32:39;94264.50;;;25.66;100.00
8334;BME280;4204;43.004;23.052;2023-09-07T12:35:08;94264.50;;;25.70;100.00
8334;BME280;4204;43.004;23.052;2023-09-07T12:37:37;94269.16;;;25.73;100.00
8334;BME280;4204;43.004;23.052;2023-09-07T12:40:06;94263.25;;;25.88;100.00
8334;BME280;4204;43.004;23.052;2023-09-07T12:42:39;94277.00;;;25.60;100.00
8334;BME280;4204;43.004;23.052;2023-09-07T12:45:08;94285.59;;;25.55;100.00
8334;BME280;4204;43.004;23.052;2023-09-07T12:47:37;94284.44;;;25.52;100.00
8334;BME280;4204;43.004;23.052;2023-09-07T12:50:05;94290.28;;;25.37;100.00
8334;BME280;4204;43.004;23.052;2023-09-07T12:52:33;94287.97;;;25.42;100.00
8334;BME280;4204;43.004;23.052;2023-09-07T12:55:04;94290.25;;;25.54;100.00
8334;BME280;4204;43.004;23.052;2023-09-07T12:57:32;94288.38;;;25.41;100.00
8334;BME280;4204;43.004;23.052;2023-09-07T13:00:01;94282.50;;;25.35;100.00
8334;BME280;4204;43.004;23.052;2023-09-07T13:02:29;94285.63;;;25.37;100.00
8334;BME280;4204;43.004;23.052;2023-09-07T13:04:57;94286.44;;;25.20;100.00
8334;BME280;4204;43.004;23.052;2023-09-07T13:07:24;94284.91;;;25.12;100.00
8334;BME280;4204;43.004;23.052;2023-09-07T13:09:52;94295.84;;;24.98;100.00